Time;durP1;ratioP1;P1;durP2;ratioP2;P2;SDS_P1;SDS_P2;PMS_P1;PMS_P2;Temp;Humidity;BMP_temperature;BMP_pressure;BME280_temperature;BME280_humidity;BME280_pressure;Samples;Min_cycle;Max_cycle;Signal;HPM_P1;HPM_P2
2023/07/24 00:00:08;;;;;;;7.17;5.10;;;;;;;19.73;79.42;100188.00;1456132;89;22221;-76
2023/07/24 00:02:34;;;;;;;6.93;4.63;;;;;;;19.72;79.91;100178.31;1472022;89;22309;-77
2023/07/24 00:05:01;;;;;;;6.85;4.80;;;;;;;19.74;80.72;100180.27;1469959;89;21438;-77
2023/07/24 00:07:27;;;;;;;6.80;4.73;;;;;;;19.75;80.58;100180.56;1467890;89;21451;-77
2023/07/24 00:09:55;;;;;;;8.53;4.83;;;;;;;19.75;81.13;100171.70;1466457;89;21385;-77
2023/07/24 00:12:22;;;;;;;8.00;4.13;;;;;;;19.75;81.37;100175.20;1467444;89;21399;-78
2023/07/24 00:14:48;;;;;;;11.50;4.90;;;;;;;19.77;82.05;100182.53;1469284;88;21659;-78
2023/07/24 00:17:14;;;;;;;8.30;5.37;;;;;;;19.76;81.95;100183.55;1444985;89;21436;-74
2023/07/24 00:19:41;;;;;;;7.47;5.05;;;;;;;19.76;82.60;100181.39;1469461;89;21326;-76
2023/07/24 00:22:07;;;;;;;6.78;4.80;;;;;;;19.75;83.19;100180.56;1463932;89;22345;-76
2023/07/24 00:24:33;;;;;;;6.93;4.57;;;;;;;19.77;83.77;100181.19;1439079;90;21611;-77
2023/07/24 00:26:59;;;;;;;5.75;4.62;;;;;;;19.79;83.32;100180.47;1428823;91;21436;-75
2023/07/24 00:29:25;;;;;;;12.80;5.22;;;;;;;19.81;83.37;100181.58;1427583;91;21562;-77
2023/07/24 00:31:51;;;;;;;6.58;5.45;;;;;;;19.80;83.32;100185.31;1439097;91;22279;-75
2023/07/24 00:34:17;;;;;;;6.22;3.92;;;;;;;19.78;83.45;100180.14;1441884;91;21385;-78
2023/07/24 00:36:43;;;;;;;7.37;5.60;;;;;;;19.78;83.86;100182.83;1422411;91;21421;-78
2023/07/24 00:39:09;;;;;;;9.70;4.10;;;;;;;19.81;84.03;100171.66;1422475;91;22398;-77
2023/07/24 00:41:38;;;;;;;6.62;5.08;;;;;;;19.81;84.30;100170.31;1431832;91;21378;-77
2023/07/24 00:44:04;;;;;;;7.03;5.05;;;;;;;19.79;84.52;100171.06;1432340;91;21458;-76
2023/07/24 00:46:33;;;;;;;7.75;4.90;;;;;;;19.78;84.20;100173.43;1426831;91;21525;-77
2023/07/24 00:49:01;;;;;;;4.87;4.00;;;;;;;19.77;84.23;100175.82;1438289;91;21577;-76
2023/07/24 00:51:28;;;;;;;9.45;5.33;;;;;;;19.76;84.58;100170.65;1423633;91;21421;-77
2023/07/24 00:54:03;;;;;;;7.75;5.12;;;;;;;19.71;85.72;100173.99;1430273;91;21474;-76
2023/07/24 00:56:31;;;;;;;6.62;4.20;;;;;;;19.71;85.53;100173.14;1432020;91;21467;-76
2023/07/24 00:58:59;;;;;;;5.75;4.42;;;;;;;19.68;86.16;100174.42;1437202;91;21542;-77
2023/07/24 01:01:26;;;;;;;9.23;4.03;;;;;;;19.70;86.29;100173.67;1428278;91;21467;-78
2023/07/24 01:03:53;;;;;;;6.58;4.90;;;;;;;19.73;86.56;100172.42;1436344;91;21537;-77
2023/07/24 01:06:19;;;;;;;8.08;4.55;;;;;;;19.76;86.91;100171.47;1427760;91;21429;-78
2023/07/24 01:08:45;;;;;;;7.10;5.05;;;;;;;19.72;86.69;100170.26;1465092;88;21554;-76
2023/07/24 01:11:32;;;;;;;8.08;5.45;;;;;;;19.73;86.71;100177.27;1474889;89;21370;-78
2023/07/24 01:14:19;;;;;;;9.73;5.47;;;;;;;19.72;86.69;100168.92;1459840;89;22419;-78
2023/07/24 01:16:47;;;;;;;6.47;5.40;;;;;;;19.70;86.75;100173.67;1465785;89;22574;-76
2023/07/24 01:19:25;;;;;;;7.62;5.67;;;;;;;19.69;87.71;100179.27;1459596;89;21355;-78
2023/07/24 01:22:19;;;;;;;6.70;4.83;;;;;;;19.67;87.92;100172.75;1463187;89;21539;-76
2023/07/24 01:25:12;;;;;;;5.08;4.28;;;;;;;19.65;88.71;100173.51;1429929;89;21598;-76
2023/07/24 01:27:46;;;;;;;12.18;5.53;;;;;;;19.65;89.17;100183.36;1457762;89;22472;-77
2023/07/24 01:30:19;;;;;;;6.97;5.22;;;;;;;19.64;90.42;100177.70;1466369;89;21355;-75
2023/07/24 01:32:46;;;;;;;6.42;5.00;;;;;;;19.65;90.26;100180.22;1466377;89;21352;-76
2023/07/24 01:35:12;;;;;;;8.30;5.22;;;;;;;19.63;91.49;100174.20;1461345;88;22323;-76
2023/07/24 01:37:40;;;;;;;6.67;4.83;;;;;;;19.62;91.38;100169.84;1457533;89;21598;-76
2023/07/24 01:40:11;;;;;;;8.38;5.55;;;;;;;19.59;91.38;100172.47;1465739;89;22301;-77
2023/07/24 01:42:38;;;;;;;8.68;5.37;;;;;;;19.59;92.26;100175.64;1466948;89;21414;-77
2023/07/24 01:45:06;;;;;;;7.20;4.60;;;;;;;19.56;92.44;100166.67;1465620;89;21503;-77
2023/07/24 01:47:32;;;;;;;9.90;5.35;;;;;;;19.56;92.60;100165.33;1461318;89;21488;-76
2023/07/24 01:49:59;;;;;;;5.80;4.83;;;;;;;19.59;93.33;100164.91;1458942;89;21414;-76
2023/07/24 01:52:26;;;;;;;8.40;4.85;;;;;;;19.58;93.26;100165.95;1452716;89;22220;-77
2023/07/24 01:54:52;;;;;;;7.17;5.53;;;;;;;19.56;93.35;100164.84;1464120;89;21318;-77
2023/07/24 01:57:19;;;;;;;6.58;4.90;;;;;;;19.53;93.87;100169.27;1471195;89;21420;-76
2023/07/24 01:59:45;;;;;;;8.83;6.00;;;;;;;19.49;94.18;100164.03;1453768;89;21384;-77
2023/07/24 02:02:11;;;;;;;7.65;5.20;;;;;;;19.46;94.32;100173.03;1466421;89;21414;-76
2023/07/24 02:04:37;;;;;;;7.42;4.92;;;;;;;19.43;94.43;100170.77;1462058;89;21585;-77
2023/07/24 02:07:04;;;;;;;6.33;5.10;;;;;;;19.39;95.93;100164.48;1463441;89;21369;-76
2023/07/24 02:09:30;;;;;;;6.50;4.53;;;;;;;19.36;96.87;100167.59;1471029;89;21458;-77
2023/07/24 02:11:56;;;;;;;8.88;5.45;;;;;;;19.36;96.80;100162.72;1464048;89;21547;-76
2023/07/24 02:14:24;;;;;;;18.60;6.57;;;;;;;19.34;97.63;100160.27;1456516;89;22352;-77
2023/07/24 02:16:50;;;;;;;8.08;5.47;;;;;;;19.34;98.46;100164.29;1465068;89;21385;-77
2023/07/24 02:19:16;;;;;;;7.28;4.78;;;;;;;19.32;98.85;100157.48;1467186;89;22279;-77
2023/07/24 02:21:42;;;;;;;6.05;4.75;;;;;;;19.32;99.27;100163.67;1467323;88;21400;-77
2023/07/24 02:24:08;;;;;;;6.95;4.67;;;;;;;19.35;99.35;100165.92;1464870;89;21363;-76
2023/07/24 02:26:35;;;;;;;6.90;5.30;;;;;;;19.38;99.96;100164.16;1469830;88;22826;-77
2023/07/24 02:29:01;;;;;;;9.58;5.55;;;;;;;19.40;99.62;100163.96;1466811;88;21370;-76
2023/07/24 02:31:27;;;;;;;8.38;5.75;;;;;;;19.39;99.63;100160.95;1460305;89;21499;-77
2023/07/24 02:33:53;;;;;;;8.20;6.17;;;;;;;19.37;99.77;100158.50;1472237;89;21377;-77
2023/07/24 02:36:20;;;;;;;8.60;5.27;;;;;;;19.34;100.00;100164.29;1457274;89;21532;-76
2023/07/24 02:38:46;;;;;;;11.90;4.77;;;;;;;19.30;100.00;100164.39;1462171;89;21363;-77
2023/07/24 02:41:12;;;;;;;7.35;4.22;;;;;;;19.30;100.00;100160.36;1464014;89;21547;-77
2023/07/24 02:43:38;;;;;;;8.03;5.30;;;;;;;19.32;100.00;100158.30;1471341;89;21517;-76
2023/07/24 02:46:05;;;;;;;7.58;4.78;;;;;;;19.34;100.00;100161.61;1454700;89;22779;-77
2023/07/24 02:48:31;;;;;;;7.13;4.23;;;;;;;19.37;100.00;100169.23;1455574;89;21548;-78
2023/07/24 02:50:57;;;;;;;6.30;5.05;;;;;;;19.42;100.00;100168.61;1461328;89;21310;-76
2023/07/24 02:53:23;;;;;;;6.55;5.03;;;;;;;19.46;100.00;100169.00;1466500;89;22302;-77
2023/07/24 02:55:50;;;;;;;6.05;4.53;;;;;;;19.49;100.00;100167.23;1467628;89;22419;-76
2023/07/24 02:58:16;;;;;;;9.90;5.90;;;;;;;19.55;100.00;100167.20;1464792;88;21399;-77
2023/07/24 03:00:42;;;;;;;10.20;5.03;;;;;;;19.58;100.00;100165.95;1463765;89;21377;-77
2023/07/24 03:03:08;;;;;;;9.33;6.45;;;;;;;19.57;100.00;100164.31;1460646;89;22383;-77
2023/07/24 03:05:35;;;;;;;8.40;5.70;;;;;;;19.56;100.00;100168.87;1463247;89;21562;-77
2023/07/24 03:08:01;;;;;;;6.67;5.00;;;;;;;19.55;100.00;100156.98;1463602;89;21362;-76
2023/07/24 03:10:27;;;;;;;10.85;6.20;;;;;;;19.57;100.00;100161.63;1464332;89;22382;-77
2023/07/24 03:12:53;;;;;;;8.83;5.30;;;;;;;19.59;100.00;100163.56;1464123;89;22346;-75
2023/07/24 03:15:20;;;;;;;6.37;4.87;;;;;;;19.57;100.00;100162.97;1470465;89;21296;-77
2023/07/24 03:17:46;;;;;;;7.62;5.75;;;;;;;19.55;100.00;100154.30;1462179;89;21541;-76
2023/07/24 03:20:19;;;;;;;11.80;5.47;;;;;;;19.52;100.00;100154.73;1467277;89;22278;-76
2023/07/24 03:22:45;;;;;;;6.25;5.00;;;;;;;19.53;100.00;100149.66;1467760;89;21422;-77
2023/07/24 03:25:11;;;;;;;10.98;5.35;;;;;;;19.52;100.00;100146.68;1466778;89;21442;-77
2023/07/24 03:27:37;;;;;;;8.40;5.65;;;;;;;19.50;100.00;100144.72;1464007;89;21548;-78
2023/07/24 03:30:07;;;;;;;6.78;4.60;;;;;;;19.49;100.00;100143.90;1469580;89;22375;-77
2023/07/24 03:32:33;;;;;;;7.05;5.08;;;;;;;19.52;100.00;100148.02;1463143;89;21377;-77
2023/07/24 03:34:59;;;;;;;7.55;5.45;;;;;;;19.53;100.00;100146.97;1462091;89;21569;-77
2023/07/24 03:37:26;;;;;;;10.80;5.37;;;;;;;19.52;100.00;100151.52;1466973;89;22228;-76
2023/07/24 03:39:52;;;;;;;7.65;4.97;;;;;;;19.54;100.00;100155.35;1463451;89;21940;-78
2023/07/24 03:42:28;;;;;;;8.78;5.80;;;;;;;19.52;100.00;100153.39;1467397;89;22519;-77
2023/07/24 03:44:55;;;;;;;9.20;5.37;;;;;;;19.52;100.00;100153.39;1464289;89;22337;-77
2023/07/24 03:47:22;;;;;;;7.85;5.85;;;;;;;19.52;100.00;100162.26;1462434;89;21369;-78
2023/07/24 03:49:48;;;;;;;6.17;4.50;;;;;;;19.51;100.00;100161.14;1466671;89;21569;-79
2023/07/24 03:52:14;;;;;;;6.22;4.80;;;;;;;19.50;100.00;100158.14;1457505;89;21422;-78
2023/07/24 03:54:41;;;;;;;7.03;5.03;;;;;;;19.52;100.00;100157.41;1468174;89;21348;-77
2023/07/24 03:57:07;;;;;;;7.33;5.35;;;;;;;19.55;100.00;100155.64;1470203;89;21401;-77
2023/07/24 03:59:33;;;;;;;8.28;5.20;;;;;;;19.58;100.00;100158.72;1458009;88;21406;-77
2023/07/24 04:02:00;;;;;;;5.12;4.40;;;;;;;19.62;100.00;100157.77;1463680;89;21607;-78
2023/07/24 04:04:26;;;;;;;8.03;5.85;;;;;;;19.63;100.00;100160.78;1462318;89;22235;-78
2023/07/24 04:06:52;;;;;;;7.95;5.87;;;;;;;19.66;100.00;100148.30;1466615;89;21606;-78
2023/07/24 04:09:19;;;;;;;8.33;5.35;;;;;;;19.69;100.00;100138.47;1457395;89;21392;-78
2023/07/24 04:11:45;;;;;;;9.38;4.80;;;;;;;19.70;100.00;100140.11;1465032;89;21311;-78
2023/07/24 04:14:11;;;;;;;7.03;5.03;;;;;;;19.68;100.00;100142.20;1468857;89;21406;-78
2023/07/24 04:16:37;;;;;;;6.47;5.08;;;;;;;19.72;100.00;100135.36;1457797;89;21378;-79
2023/07/24 04:19:04;;;;;;;6.87;5.25;;;;;;;19.77;100.00;100132.86;1467726;89;21576;-77
2023/07/24 04:21:30;;;;;;;9.95;5.40;;;;;;;19.87;100.00;100131.56;1466611;88;21384;-78
2023/07/24 04:23:56;;;;;;;9.53;5.50;;;;;;;19.91;100.00;100132.77;1465620;89;21407;-78
2023/07/24 04:26:22;;;;;;;13.90;5.62;;;;;;;19.97;100.00;100123.87;1443247;89;21362;-77
2023/07/24 04:28:49;;;;;;;6.03;5.33;;;;;;;20.04;100.00;100124.11;1468262;88;21451;-77
2023/07/24 04:31:15;;;;;;;6.25;5.37;;;;;;;20.10;100.00;100126.97;1464809;89;21392;-77
2023/07/24 04:33:41;;;;;;;7.00;5.00;;;;;;;20.14;100.00;100120.95;1464877;89;21333;-76
2023/07/24 04:36:07;;;;;;;9.88;5.70;;;;;;;20.23;100.00;100119.64;1463306;89;21518;-78
2023/07/24 04:38:34;;;;;;;9.73;4.87;;;;;;;20.35;100.00;100117.07;1464259;89;22234;-77
2023/07/24 04:41:03;;;;;;;8.08;5.00;;;;;;;20.44;100.00;100119.78;1459240;89;21421;-76
2023/07/24 04:43:30;;;;;;;9.85;4.85;;;;;;;20.56;100.00;100116.41;1463045;89;21540;-77
2023/07/24 04:45:56;;;;;;;9.73;5.05;;;;;;;20.69;100.00;100119.80;1465683;89;22324;-76
2023/07/24 04:48:22;;;;;;;5.58;5.00;;;;;;;20.83;100.00;100115.63;1460292;89;21870;-75
2023/07/24 04:50:55;;;;;;;9.08;5.92;;;;;;;20.89;100.00;100115.57;1462392;89;21318;-75
2023/07/24 04:53:22;;;;;;;7.15;5.35;;;;;;;20.97;100.00;100110.41;1466535;89;22367;-76
2023/07/24 04:55:49;;;;;;;6.00;5.08;;;;;;;21.09;99.83;100112.67;1461992;89;21833;-77
2023/07/24 04:58:15;;;;;;;10.68;5.12;;;;;;;21.19;99.73;100110.26;1464266;89;21613;-76
2023/07/24 05:00:42;;;;;;;9.40;4.83;;;;;;;21.36;99.32;100108.31;1460360;89;21488;-76
2023/07/24 05:03:10;;;;;;;13.95;5.22;;;;;;;21.44;97.81;100102.66;1464740;89;21437;-75
2023/07/24 05:05:37;;;;;;;7.37;5.78;;;;;;;21.45;97.05;100101.59;1439649;90;21914;-77
2023/07/24 05:08:04;;;;;;;7.62;4.67;;;;;;;21.42;96.62;100103.39;1436070;91;21529;-77
2023/07/24 05:10:36;;;;;;;8.10;5.70;;;;;;;21.43;96.17;100103.69;1435232;91;21452;-76
2023/07/24 05:13:02;;;;;;;9.58;5.28;;;;;;;21.40;95.89;100102.27;1431200;91;21385;-77
2023/07/24 05:15:28;;;;;;;5.20;4.20;;;;;;;21.37;95.80;100109.45;1427950;91;21436;-77
2023/07/24 05:17:55;;;;;;;10.90;4.95;;;;;;;21.39;96.10;100111.92;1434852;91;22286;-77
2023/07/24 05:20:22;;;;;;;9.50;4.50;;;;;;;21.43;95.87;100110.95;1425719;91;21415;-77
2023/07/24 05:22:48;;;;;;;5.47;4.40;;;;;;;21.51;95.79;100110.11;1432458;91;22354;-77
2023/07/24 05:25:14;;;;;;;7.47;6.15;;;;;;;21.55;95.26;100109.97;1424436;91;21399;-78
2023/07/24 05:27:40;;;;;;;5.58;4.92;;;;;;;21.63;94.72;100105.59;1436998;91;22507;-77
2023/07/24 05:30:07;;;;;;;5.47;4.25;;;;;;;21.74;94.74;100106.69;1465735;88;21326;-78
2023/07/24 05:32:34;;;;;;;8.03;4.80;;;;;;;21.83;94.22;100108.00;1457379;89;21529;-77
2023/07/24 05:35:00;;;;;;;8.03;4.45;;;;;;;22.01;94.02;100100.41;1462589;89;21380;-77
2023/07/24 05:37:26;;;;;;;7.10;4.75;;;;;;;22.01;94.02;100100.41;1469834;88;21555;-77
2023/07/24 05:39:52;;;;;;;6.67;5.05;;;;;;;22.11;93.47;100101.17;1463244;89;21406;-78
2023/07/24 05:42:19;;;;;;;5.28;4.42;;;;;;;22.25;92.62;100099.95;1461124;88;21400;-77
2023/07/24 05:44:45;;;;;;;8.85;5.00;;;;;;;22.37;92.00;100101.30;1464886;89;22270;-78
2023/07/24 05:47:11;;;;;;;9.03;5.00;;;;;;;22.47;91.56;100099.36;1460885;89;21532;-78
2023/07/24 05:49:37;;;;;;;9.10;5.15;;;;;;;22.57;90.80;100100.16;1462691;89;21495;-78
2023/07/24 05:52:04;;;;;;;7.67;5.78;;;;;;;22.70;90.88;100098.55;1446715;89;21421;-78
2023/07/24 05:54:30;;;;;;;7.50;4.65;;;;;;;22.88;90.71;100101.13;1465646;89;22045;-78
2023/07/24 05:56:56;;;;;;;6.53;4.78;;;;;;;23.04;89.93;100093.38;1453618;89;21459;-78
2023/07/24 05:59:22;;;;;;;6.78;5.30;;;;;;;23.21;89.50;100092.93;1463859;89;21888;-78
2023/07/24 06:01:48;;;;;;;11.00;5.28;;;;;;;23.34;88.86;100096.72;1462466;89;21370;-77
2023/07/24 06:04:14;;;;;;;9.48;4.85;;;;;;;23.41;88.26;100108.19;1465373;89;21549;-78
2023/07/24 06:06:41;;;;;;;8.48;3.95;;;;;;;23.47;87.69;100102.89;1458286;89;22404;-77
2023/07/24 06:09:07;;;;;;;7.42;5.05;;;;;;;23.53;87.14;100107.33;1465430;89;21406;-78
2023/07/24 06:11:33;;;;;;;9.45;4.65;;;;;;;23.61;86.40;100101.01;1458759;89;22708;-77
2023/07/24 06:13:59;;;;;;;9.48;4.55;;;;;;;23.76;86.40;100096.98;1461097;89;21325;-78
2023/07/24 06:16:26;;;;;;;5.30;4.47;;;;;;;23.83;85.44;100103.89;1463892;88;21378;-77
2023/07/24 06:18:52;;;;;;;7.92;4.25;;;;;;;23.90;84.83;100103.73;1460517;88;22655;-77
2023/07/24 06:21:18;;;;;;;9.10;4.17;;;;;;;23.91;84.53;100100.48;1460188;89;21451;-78
2023/07/24 06:23:44;;;;;;;5.22;4.05;;;;;;;23.84;84.35;100098.77;1460968;89;21525;-78
2023/07/24 06:26:10;;;;;;;8.48;4.45;;;;;;;23.84;84.78;100094.70;1440756;90;21325;-78
2023/07/24 06:28:37;;;;;;;6.25;4.58;;;;;;;23.81;85.10;100097.90;1429267;91;22316;-78
2023/07/24 06:31:03;;;;;;;4.92;3.83;;;;;;;23.86;85.43;100100.70;1459001;88;21347;-78
2023/07/24 06:33:29;;;;;;;8.70;4.47;;;;;;;23.94;85.88;100095.95;1466737;89;21528;-78
2023/07/24 06:35:56;;;;;;;4.25;3.70;;;;;;;24.01;85.92;100089.87;1443936;89;21377;-79
2023/07/24 06:38:22;;;;;;;9.28;4.53;;;;;;;24.15;85.22;100095.25;1464493;88;22323;-77
2023/07/24 06:40:48;;;;;;;8.15;5.12;;;;;;;24.32;84.91;100093.36;1471386;89;22418;-77
2023/07/24 06:43:15;;;;;;;5.78;4.87;;;;;;;24.38;83.00;100090.74;1463975;89;21378;-78
2023/07/24 06:45:41;;;;;;;6.72;4.67;;;;;;;24.45;82.67;100098.17;1466534;89;21459;-78
2023/07/24 06:48:07;;;;;;;6.28;4.87;;;;;;;24.51;82.11;100095.31;1464287;89;22456;-79
2023/07/24 06:50:33;;;;;;;13.65;4.40;;;;;;;24.58;81.57;100096.48;1462949;88;22352;-78
2023/07/24 06:52:59;;;;;;;8.50;5.47;;;;;;;24.63;80.08;100089.80;1464061;88;21318;-77
2023/07/24 06:55:26;;;;;;;4.78;4.30;;;;;;;24.71;80.16;100088.54;1460195;88;21348;-78
2023/07/24 06:57:52;;;;;;;8.53;5.03;;;;;;;24.83;79.64;100086.57;1440435;89;21929;-79
2023/07/24 07:00:19;;;;;;;8.50;4.45;;;;;;;24.92;78.33;100088.31;1460750;89;21422;-78
2023/07/24 07:02:45;;;;;;;8.65;5.05;;;;;;;25.00;77.46;100085.14;1464280;89;21303;-77
2023/07/24 07:05:11;;;;;;;9.75;4.87;;;;;;;25.13;77.63;100076.66;1460819;89;21428;-79
2023/07/24 07:07:39;;;;;;;8.33;4.40;;;;;;;25.27;77.14;100072.25;1451607;89;22374;-78
2023/07/24 07:10:07;;;;;;;6.83;4.60;;;;;;;25.42;76.73;100069.70;1464621;89;21406;-79
2023/07/24 07:12:33;;;;;;;11.85;4.42;;;;;;;25.52;75.47;100071.19;1387497;89;22029;-78
2023/07/24 07:14:59;;;;;;;11.60;5.28;;;;;;;25.61;74.67;100081.02;1388945;89;21252;-78
2023/07/24 07:17:25;;;;;;;6.92;4.65;;;;;;;25.68;73.87;100072.14;1395121;89;21304;-77
2023/07/24 07:19:52;;;;;;;8.43;5.10;;;;;;;25.76;73.08;100064.09;1547408;89;22165;-77
2023/07/24 07:22:18;;;;;;;8.00;4.58;;;;;;;25.82;71.90;100057.64;1389322;88;21200;-78
2023/07/24 07:24:46;;;;;;;11.43;5.75;;;;;;;25.86;72.14;100049.30;1407822;89;21422;-77
2023/07/24 07:27:12;;;;;;;8.35;4.97;;;;;;;25.98;72.35;100066.23;1453258;89;21451;-78
2023/07/24 07:29:38;;;;;;;6.42;4.40;;;;;;;26.03;70.83;100058.11;1467332;89;22309;-77
2023/07/24 07:32:06;;;;;;;8.88;4.53;;;;;;;26.15;71.42;100055.77;1468561;89;21318;-78
2023/07/24 07:34:32;;;;;;;5.70;4.42;;;;;;;26.27;70.69;100063.20;1466904;89;22383;-77
2023/07/24 07:36:58;;;;;;;7.58;4.67;;;;;;;26.34;69.19;100052.93;1459371;89;22228;-78
2023/07/24 07:39:24;;;;;;;7.50;4.33;;;;;;;26.44;69.98;100057.08;1466962;89;21554;-77
2023/07/24 07:41:50;;;;;;;7.45;4.90;;;;;;;26.55;69.15;100067.47;1451766;89;21408;-78
2023/07/24 07:44:17;;;;;;;7.25;4.12;;;;;;;26.61;68.62;100057.46;1468511;89;21376;-77
2023/07/24 07:46:43;;;;;;;9.28;4.85;;;;;;;26.74;68.47;100062.44;1463478;89;21547;-76
2023/07/24 07:49:09;;;;;;;10.13;5.12;;;;;;;26.83;68.85;100076.32;1461680;89;21385;-75
2023/07/24 07:51:35;;;;;;;11.05;5.08;;;;;;;26.90;67.99;100075.02;1464570;89;22241;-77
2023/07/24 07:54:02;;;;;;;8.60;4.85;;;;;;;27.01;67.89;100073.95;1463137;89;21363;-76
2023/07/24 07:56:28;;;;;;;12.30;5.08;;;;;;;27.14;65.95;100084.07;1461966;89;21533;-77
2023/07/24 07:58:55;;;;;;;5.85;4.90;;;;;;;27.19;65.24;100070.55;1464917;89;21385;-76
2023/07/24 08:01:21;;;;;;;6.72;5.08;;;;;;;27.27;64.26;100070.55;1458457;89;22264;-77
2023/07/24 08:03:47;;;;;;;8.83;4.95;;;;;;;27.32;64.46;100074.10;1465269;89;21399;-77
2023/07/24 08:06:13;;;;;;;11.50;5.08;;;;;;;27.39;63.91;100075.20;1462570;89;21451;-76
2023/07/24 08:08:39;;;;;;;9.28;4.95;;;;;;;27.44;62.23;100069.23;1461930;89;21665;-77
2023/07/24 08:11:06;;;;;;;9.50;5.45;;;;;;;27.46;62.75;100063.55;1457128;89;22330;-78
2023/07/24 08:13:34;;;;;;;5.28;4.58;;;;;;;27.49;62.32;100064.91;1387734;89;21259;-77
2023/07/24 08:16:02;;;;;;;9.18;5.28;;;;;;;27.55;62.27;100055.69;1387911;89;21260;-77
2023/07/24 08:18:28;;;;;;;7.42;5.45;;;;;;;27.61;62.75;100057.33;1369299;90;21303;-76
2023/07/24 08:20:54;;;;;;;7.85;5.20;;;;;;;27.66;62.08;100053.27;1359409;91;21282;-76
2023/07/24 08:23:20;;;;;;;9.10;5.05;;;;;;;27.74;61.38;100047.30;1389268;88;21415;-76
2023/07/24 08:25:56;;;;;;;7.33;4.67;;;;;;;27.83;61.71;100043.52;1389068;89;21479;-77
2023/07/24 08:28:22;;;;;;;11.00;4.90;;;;;;;27.98;61.56;100045.42;1388610;89;21341;-76
2023/07/24 08:31:01;;;;;;;9.93;5.05;;;;;;;28.11;59.96;100045.70;1388419;89;21570;-77
2023/07/24 08:33:27;;;;;;;8.90;5.42;;;;;;;28.17;60.83;100045.67;1385446;89;21253;-77
2023/07/24 08:36:07;;;;;;;11.22;5.85;;;;;;;28.28;60.66;100045.41;1391575;88;21329;-77
2023/07/24 08:38:36;;;;;;;8.78;4.87;;;;;;;28.40;60.05;100049.20;1386807;89;21401;-78
2023/07/24 08:41:12;;;;;;;11.88;5.30;;;;;;;28.43;59.23;100051.95;1389099;89;22299;-78
2023/07/24 08:43:40;;;;;;;9.80;4.97;;;;;;;28.56;59.53;100059.52;1399507;89;21406;-77
2023/07/24 08:46:07;;;;;;;10.05;5.65;;;;;;;28.59;58.59;100050.80;1386354;89;22294;-76
2023/07/24 08:48:37;;;;;;;9.65;5.15;;;;;;;28.63;58.82;100047.81;1388689;89;21281;-77
2023/07/24 08:51:10;;;;;;;6.95;5.80;;;;;;;28.71;58.15;100041.77;1541071;88;22125;-78
2023/07/24 08:53:38;;;;;;;7.42;5.50;;;;;;;28.77;58.33;100046.14;1385990;89;21296;-78
2023/07/24 08:56:07;;;;;;;8.00;5.40;;;;;;;28.81;57.71;100049.66;1386331;89;21304;-78
2023/07/24 08:58:34;;;;;;;9.60;5.62;;;;;;;28.85;56.90;100046.64;1393067;89;21334;-78
2023/07/24 09:01:03;;;;;;;6.25;5.25;;;;;;;28.90;56.53;100049.35;1374398;90;22133;-79
2023/07/24 09:03:31;;;;;;;7.60;5.70;;;;;;;28.97;56.28;100042.52;1386816;89;21193;-79
2023/07/24 09:05:57;;;;;;;8.65;5.65;;;;;;;29.08;56.03;100040.58;1393166;89;22338;-78
2023/07/24 09:08:36;;;;;;;20.15;6.92;;;;;;;29.18;55.72;100045.98;1388745;88;21326;-77
2023/07/24 09:11:05;;;;;;;9.33;5.65;;;;;;;29.29;54.97;100035.02;1384841;89;21422;-76
2023/07/24 09:13:32;;;;;;;10.10;5.53;;;;;;;29.43;54.71;100035.50;1392550;89;21326;-76
2023/07/24 09:16:02;;;;;;;13.15;5.67;;;;;;;29.47;54.28;100034.38;1550088;89;21178;-78
2023/07/24 09:18:26;;;;;;;8.93;4.83;;;;;;;29.52;54.18;100031.62;1546539;89;21311;-77
2023/07/24 09:20:52;;;;;;;8.28;6.17;;;;;;;29.60;54.61;100030.19;1389136;89;21310;-79
2023/07/24 09:23:28;;;;;;;9.85;6.22;;;;;;;29.73;53.84;100026.86;1388992;89;21260;-77
2023/07/24 09:25:54;;;;;;;14.65;5.97;;;;;;;29.83;53.97;100017.77;1530630;89;21341;-77
2023/07/24 09:28:23;;;;;;;7.83;5.60;;;;;;;29.93;53.43;100024.52;1388756;89;21326;-78
2023/07/24 09:30:58;;;;;;;11.87;6.40;;;;;;;29.99;53.28;100018.47;1386261;88;22140;-79
2023/07/24 09:33:39;;;;;;;10.05;5.78;;;;;;;29.98;52.77;100012.20;1389337;89;21207;-77
2023/07/24 09:36:08;;;;;;;8.10;5.95;;;;;;;30.03;53.02;100010.77;1547120;89;21193;-78
2023/07/24 09:38:35;;;;;;;7.50;5.85;;;;;;;30.07;52.61;100002.84;1391883;89;21237;-77
2023/07/24 09:41:03;;;;;;;13.28;6.37;;;;;;;30.03;52.32;100002.58;1387906;89;21260;-79
2023/07/24 09:43:29;;;;;;;12.25;6.37;;;;;;;30.06;52.88;99993.82;1507183;89;21311;-77
2023/07/24 09:45:57;;;;;;;16.25;6.10;;;;;;;30.17;52.92;99993.73;1394172;89;21282;-78
2023/07/24 09:48:26;;;;;;;8.83;5.97;;;;;;;30.27;52.86;99984.12;1387915;89;21258;-77
2023/07/24 09:51:01;;;;;;;12.23;5.80;;;;;;;30.30;52.25;99984.91;1385938;89;21231;-77
2023/07/24 09:53:39;;;;;;;11.35;6.58;;;;;;;30.37;51.52;99982.62;1392222;89;21304;-78
2023/07/24 09:56:09;;;;;;;8.20;6.53;;;;;;;30.36;51.57;99982.38;1547463;89;21412;-78
2023/07/24 09:58:38;;;;;;;9.75;6.17;;;;;;;30.33;51.74;99980.23;1385122;89;21422;-78
2023/07/24 10:01:07;;;;;;;10.78;6.12;;;;;;;30.41;51.48;99976.83;1392081;89;21252;-77
2023/07/24 10:03:40;;;;;;;9.00;6.55;;;;;;;30.41;51.42;99974.66;1541249;88;21422;-78
2023/07/24 10:06:12;;;;;;;9.20;6.25;;;;;;;30.18;51.61;99958.51;1545238;89;21394;-77
2023/07/24 10:08:39;;;;;;;13.80;6.58;;;;;;;30.02;52.71;99956.50;1409104;89;21590;-79
2023/07/24 10:11:06;;;;;;;8.33;6.35;;;;;;;30.13;52.92;99962.13;1387415;89;21341;-81
2023/07/24 10:13:36;;;;;;;11.20;6.17;;;;;;;30.27;53.09;99969.11;1389134;89;21222;-80
2023/07/24 10:16:03;;;;;;;12.93;7.47;;;;;;;30.41;52.08;99968.64;1511692;89;21297;-82
2023/07/24 10:18:30;;;;;;;9.53;6.62;;;;;;;30.56;51.27;99960.30;1387284;89;22117;-80
2023/07/24 10:21:09;;;;;;;11.83;6.12;;;;;;;30.66;50.73;99965.36;1390249;89;21267;-80
2023/07/24 10:23:38;;;;;;;18.90;6.78;;;;;;;30.87;50.61;99961.27;1547661;89;21319;-80
2023/07/24 10:26:06;;;;;;;16.32;7.00;;;;;;;31.11;50.54;99957.13;1385574;89;21333;-81
2023/07/24 10:28:38;;;;;;;12.07;6.58;;;;;;;31.13;48.70;99959.55;1367345;90;21310;-80
2023/07/24 10:31:13;;;;;;;12.23;6.12;;;;;;;31.21;49.41;99956.16;1504157;91;21488;-79
2023/07/24 10:33:40;;;;;;;11.53;5.95;;;;;;;31.36;49.55;99951.03;1546303;88;21363;-79
2023/07/24 10:36:13;;;;;;;19.02;5.92;;;;;;;31.44;49.54;99936.12;1389202;89;21378;-79
2023/07/24 10:38:42;;;;;;;8.28;6.08;;;;;;;31.57;49.14;99929.66;1391511;89;21282;-81
2023/07/24 10:41:10;;;;;;;18.45;6.25;;;;;;;31.61;48.05;99930.11;1386138;89;21245;-79
2023/07/24 10:43:49;;;;;;;11.67;7.10;;;;;;;31.65;48.17;99934.41;1392502;89;21348;-79
2023/07/24 10:46:18;;;;;;;16.90;6.58;;;;;;;31.74;48.20;99927.17;1392103;89;22286;-81
2023/07/24 10:48:47;;;;;;;16.77;6.28;;;;;;;31.73;48.05;99939.20;1404557;89;22327;-80
2023/07/24 10:51:14;;;;;;;9.73;6.87;;;;;;;31.55;48.17;99931.87;1373819;90;21229;-80
2023/07/24 10:53:49;;;;;;;9.85;6.55;;;;;;;31.46;48.46;99926.27;1394603;89;22281;-80
2023/07/24 10:56:17;;;;;;;11.15;6.72;;;;;;;31.35;47.44;99941.19;1550713;88;21171;-79
2023/07/24 10:58:43;;;;;;;10.38;6.95;;;;;;;31.20;48.27;99923.11;1386860;89;21259;-80
2023/07/24 11:01:14;;;;;;;10.60;6.75;;;;;;;31.32;48.62;99926.19;1388616;89;21311;-80
2023/07/24 11:03:45;;;;;;;16.87;7.28;;;;;;;31.46;47.81;99916.14;1545566;89;21326;-80
2023/07/24 11:06:17;;;;;;;11.30;7.70;;;;;;;31.60;46.70;99904.44;1387396;89;21488;-78
2023/07/24 11:08:58;;;;;;;8.30;6.80;;;;;;;31.63;46.83;99902.47;1385656;89;21521;-79
2023/07/24 11:11:35;;;;;;;11.10;7.03;;;;;;;31.58;45.51;99908.83;1547201;89;21349;-79
2023/07/24 11:14:03;;;;;;;14.53;7.28;;;;;;;31.58;45.87;99909.39;1543859;89;21450;-82
2023/07/24 11:16:33;;;;;;;14.30;7.10;;;;;;;31.63;46.05;99906.58;1387433;89;22212;-82
2023/07/24 11:18:59;;;;;;;10.38;7.30;;;;;;;31.71;46.00;99908.63;1390059;89;21370;-81
2023/07/24 11:21:26;;;;;;;18.10;8.18;;;;;;;31.79;46.12;99912.01;1547069;89;21330;-81
2023/07/24 11:23:54;;;;;;;13.90;7.55;;;;;;;31.85;45.81;99903.98;1388322;89;22103;-81